sensor_id;sensor_type;location;lat;lon;timestamp;P1;durP1;ratioP1;P2;durP2;ratioP2
27015;SDS011;14557;0.000;0.000;2023-12-29T00:00:09;3.00;;;0.70;;
27015;SDS011;14557;0.000;0.000;2023-12-29T00:02:35;3.42;;;0.88;;
27015;SDS011;14557;0.000;0.000;2023-12-29T00:05:00;2.13;;;0.65;;
27015;SDS011;14557;0.000;0.000;2023-12-29T00:07:26;1.77;;;0.40;;
27015;SDS011;14557;0.000;0.000;2023-12-29T00:09:52;1.17;;;0.32;;
27015;SDS011;14557;0.000;0.000;2023-12-29T00:12:18;2.15;;;0.50;;
27015;SDS011;14557;0.000;0.000;2023-12-29T00:14:43;3.22;;;0.47;;
27015;SDS011;14557;0.000;0.000;2023-12-29T00:17:09;1.70;;;0.60;;
27015;SDS011;14557;0.000;0.000;2023-12-29T00:19:35;1.77;;;0.40;;
27015;SDS011;14557;0.000;0.000;2023-12-29T00:22:01;8.70;;;0.60;;
27015;SDS011;14557;0.000;0.000;2023-12-29T00:24:28;2.30;;;0.47;;
27015;SDS011;14557;0.000;0.000;2023-12-29T00:26:56;2.20;;;0.60;;
27015;SDS011;14557;0.000;0.000;2023-12-29T00:29:23;1.75;;;0.70;;
27015;SDS011;14557;0.000;0.000;2023-12-29T00:31:49;4.32;;;0.98;;
27015;SDS011;14557;0.000;0.000;2023-12-29T00:34:15;2.53;;;0.50;;
27015;SDS011;14557;0.000;0.000;2023-12-29T00:36:41;2.17;;;0.60;;
27015;SDS011;14557;0.000;0.000;2023-12-29T00:39:06;2.80;;;0.70;;
27015;SDS011;14557;0.000;0.000;2023-12-29T00:41:32;0.95;;;0.30;;
27015;SDS011;14557;0.000;0.000;2023-12-29T00:43:58;2.42;;;0.40;;
27015;SDS011;14557;0.000;0.000;2023-12-29T00:46:23;2.53;;;0.60;;
27015;SDS011;14557;0.000;0.000;2023-12-29T00:48:49;3.70;;;0.50;;
27015;SDS011;14557;0.000;0.000;2023-12-29T00:51:15;2.97;;;0.55;;
27015;SDS011;14557;0.000;0.000;2023-12-29T00:53:40;1.88;;;0.50;;
27015;SDS011;14557;0.000;0.000;2023-12-29T00:56:10;1.33;;;0.40;;
27015;SDS011;14557;0.000;0.000;2023-12-29T00:58:36;1.15;;;0.30;;
27015;SDS011;14557;0.000;0.000;2023-12-29T01:01:02;1.38;;;0.50;;
27015;SDS011;14557;0.000;0.000;2023-12-29T01:03:28;2.08;;;0.28;;
27015;SDS011;14557;0.000;0.000;2023-12-29T01:05:54;1.20;;;0.40;;
27015;SDS011;14557;0.000;0.000;2023-12-29T01:08:19;1.73;;;0.40;;
27015;SDS011;14557;0.000;0.000;2023-12-29T01:10:45;2.03;;;0.40;;
27015;SDS011;14557;0.000;0.000;2023-12-29T01:13:11;1.38;;;0.45;;
27015;SDS011;14557;0.000;0.000;2023-12-29T01:15:37;1.33;;;0.40;;
27015;SDS011;14557;0.000;0.000;2023-12-29T01:18:02;1.00;;;0.38;;
27015;SDS011;14557;0.000;0.000;2023-12-29T01:20:28;6.15;;;0.60;;
27015;SDS011;14557;0.000;0.000;2023-12-29T01:22:54;1.67;;;0.40;;
27015;SDS011;14557;0.000;0.000;2023-12-29T01:25:20;0.88;;;0.30;;
27015;SDS011;14557;0.000;0.000;2023-12-29T01:27:45;1.33;;;0.32;;
27015;SDS011;14557;0.000;0.000;2023-12-29T01:30:11;1.58;;;0.35;;
27015;SDS011;14557;0.000;0.000;2023-12-29T01:32:37;1.38;;;0.57;;
27015;SDS011;14557;0.000;0.000;2023-12-29T01:35:03;1.15;;;0.38;;
27015;SDS011;14557;0.000;0.000;2023-12-29T01:37:29;2.63;;;0.60;;
27015;SDS011;14557;0.000;0.000;2023-12-29T01:39:55;1.88;;;0.40;;
27015;SDS011;14557;0.000;0.000;2023-12-29T01:42:20;1.13;;;0.30;;
27015;SDS011;14557;0.000;0.000;2023-12-29T01:44:47;0.93;;;0.32;;
27015;SDS011;14557;0.000;0.000;2023-12-29T01:47:17;1.67;;;0.40;;
27015;SDS011;14557;0.000;0.000;2023-12-29T01:49:46;1.60;;;0.40;;
27015;SDS011;14557;0.000;0.000;2023-12-29T01:52:13;1.42;;;0.40;;
27015;SDS011;14557;0.000;0.000;2023-12-29T01:54:41;1.40;;;0.30;;
27015;SDS011;14557;0.000;0.000;2023-12-29T01:57:08;0.98;;;0.20;;
27015;SDS011;14557;0.000;0.000;2023-12-29T01:59:34;1.08;;;0.30;;
27015;SDS011;14557;0.000;0.000;2023-12-29T02:02:01;0.85;;;0.32;;
27015;SDS011;14557;0.000;0.000;2023-12-29T02:04:27;0.80;;;0.27;;
27015;SDS011;14557;0.000;0.000;2023-12-29T02:06:53;0.77;;;0.30;;
27015;SDS011;14557;0.000;0.000;2023-12-29T02:09:20;1.02;;;0.47;;
27015;SDS011;14557;0.000;0.000;2023-12-29T02:11:46;1.52;;;0.30;;
27015;SDS011;14557;0.000;0.000;2023-12-29T02:14:12;0.82;;;0.20;;
27015;SDS011;14557;0.000;0.000;2023-12-29T02:16:52;0.85;;;0.30;;
27015;SDS011;14557;0.000;0.000;2023-12-29T02:21:56;1.63;;;0.30;;
27015;SDS011;14557;0.000;0.000;2023-12-29T02:24:21;2.35;;;0.32;;
27015;SDS011;14557;0.000;0.000;2023-12-29T02:26:48;1.42;;;0.30;;
27015;SDS011;14557;0.000;0.000;2023-12-29T02:29:22;1.55;;;0.38;;
27015;SDS011;14557;0.000;0.000;2023-12-29T02:31:52;0.95;;;0.30;;
27015;SDS011;14557;0.000;0.000;2023-12-29T02:34:21;2.13;;;0.30;;
27015;SDS011;14557;0.000;0.000;2023-12-29T02:36:48;1.20;;;0.40;;
27015;SDS011;14557;0.000;0.000;2023-12-29T02:39:16;2.03;;;0.35;;
27015;SDS011;14557;0.000;0.000;2023-12-29T02:41:42;1.70;;;0.40;;
27015;SDS011;14557;0.000;0.000;2023-12-29T02:44:07;1.63;;;0.20;;
27015;SDS011;14557;0.000;0.000;2023-12-29T02:46:33;1.77;;;0.40;;
27015;SDS011;14557;0.000;0.000;2023-12-29T02:48:59;1.60;;;0.35;;
27015;SDS011;14557;0.000;0.000;2023-12-29T02:51:25;0.40;;;0.20;;
27015;SDS011;14557;0.000;0.000;2023-12-29T02:53:51;0.68;;;0.20;;
27015;SDS011;14557;0.000;0.000;2023-12-29T02:56:16;1.05;;;0.30;;
27015;SDS011;14557;0.000;0.000;2023-12-29T02:58:42;0.80;;;0.20;;
27015;SDS011;14557;0.000;0.000;2023-12-29T03:01:10;0.60;;;0.20;;
27015;SDS011;14557;0.000;0.000;2023-12-29T03:03:36;0.70;;;0.20;;
27015;SDS011;14557;0.000;0.000;2023-12-29T03:06:05;0.75;;;0.30;;
27015;SDS011;14557;0.000;0.000;2023-12-29T03:08:31;1.15;;;0.40;;
27015;SDS011;14557;0.000;0.000;2023-12-29T03:10:57;0.47;;;0.22;;
27015;SDS011;14557;0.000;0.000;2023-12-29T03:13:24;1.00;;;0.40;;
27015;SDS011;14557;0.000;0.000;2023-12-29T03:15:49;2.15;;;0.20;;
27015;SDS011;14557;0.000;0.000;2023-12-29T03:18:15;1.63;;;0.40;;
27015;SDS011;14557;0.000;0.000;2023-12-29T03:20:41;1.33;;;0.40;;
27015;SDS011;14557;0.000;0.000;2023-12-29T03:23:07;0.85;;;0.25;;
27015;SDS011;14557;0.000;0.000;2023-12-29T03:25:32;1.02;;;0.25;;
27015;SDS011;14557;0.000;0.000;2023-12-29T03:27:58;0.77;;;0.30;;
27015;SDS011;14557;0.000;0.000;2023-12-29T03:30:25;0.68;;;0.20;;
27015;SDS011;14557;0.000;0.000;2023-12-29T03:32:51;0.50;;;0.20;;
27015;SDS011;14557;0.000;0.000;2023-12-29T03:35:17;1.55;;;0.40;;
27015;SDS011;14557;0.000;0.000;2023-12-29T03:37:42;0.28;;;0.10;;
27015;SDS011;14557;0.000;0.000;2023-12-29T03:40:08;0.57;;;0.10;;
27015;SDS011;14557;0.000;0.000;2023-12-29T03:42:35;0.68;;;0.10;;
27015;SDS011;14557;0.000;0.000;2023-12-29T03:45:00;0.50;;;0.20;;
27015;SDS011;14557;0.000;0.000;2023-12-29T03:47:26;1.63;;;0.40;;
27015;SDS011;14557;0.000;0.000;2023-12-29T03:49:53;1.23;;;0.35;;
27015;SDS011;14557;0.000;0.000;2023-12-29T03:52:18;1.35;;;0.10;;
27015;SDS011;14557;0.000;0.000;2023-12-29T03:54:44;0.38;;;0.10;;
27015;SDS011;14557;0.000;0.000;2023-12-29T03:57:10;1.08;;;0.28;;
27015;SDS011;14557;0.000;0.000;2023-12-29T03:59:36;0.85;;;0.30;;
27015;SDS011;14557;0.000;0.000;2023-12-29T04:02:02;0.57;;;0.10;;
27015;SDS011;14557;0.000;0.000;2023-12-29T04:04:28;0.47;;;0.10;;
27015;SDS011;14557;0.000;0.000;2023-12-29T04:06:54;0.08;;;0.00;;
27015;SDS011;14557;0.000;0.000;2023-12-29T04:09:20;0.47;;;0.13;;
27015;SDS011;14557;0.000;0.000;2023-12-29T04:11:46;0.75;;;0.20;;
27015;SDS011;14557;0.000;0.000;2023-12-29T04:14:11;0.55;;;0.10;;
27015;SDS011;14557;0.000;0.000;2023-12-29T04:16:38;0.60;;;0.20;;
27015;SDS011;14557;0.000;0.000;2023-12-29T04:19:04;0.75;;;0.20;;
27015;SDS011;14557;0.000;0.000;2023-12-29T04:21:30;0.75;;;0.20;;
27015;SDS011;14557;0.000;0.000;2023-12-29T04:23:56;0.60;;;0.20;;
27015;SDS011;14557;0.000;0.000;2023-12-29T04:26:21;0.15;;;0.10;;
27015;SDS011;14557;0.000;0.000;2023-12-29T04:28:47;1.05;;;0.15;;
27015;SDS011;14557;0.000;0.000;2023-12-29T04:31:13;0.43;;;0.20;;
27015;SDS011;14557;0.000;0.000;2023-12-29T04:33:39;0.40;;;0.20;;
27015;SDS011;14557;0.000;0.000;2023-12-29T04:36:05;0.30;;;0.10;;
27015;SDS011;14557;0.000;0.000;2023-12-29T04:38:31;0.73;;;0.20;;
27015;SDS011;14557;0.000;0.000;2023-12-29T04:40:56;0.25;;;0.05;;
27015;SDS011;14557;0.000;0.000;2023-12-29T04:43:22;0.63;;;0.10;;
27015;SDS011;14557;0.000;0.000;2023-12-29T04:45:48;0.30;;;0.17;;
27015;SDS011;14557;0.000;0.000;2023-12-29T04:48:13;0.28;;;0.20;;
27015;SDS011;14557;0.000;0.000;2023-12-29T04:50:39;0.20;;;0.10;;
27015;SDS011;14557;0.000;0.000;2023-12-29T04:53:05;0.40;;;0.10;;
27015;SDS011;14557;0.000;0.000;2023-12-29T04:55:30;0.90;;;0.15;;
27015;SDS011;14557;0.000;0.000;2023-12-29T04:57:56;0.90;;;0.10;;
27015;SDS011;14557;0.000;0.000;2023-12-29T05:00:22;0.35;;;0.10;;
27015;SDS011;14557;0.000;0.000;2023-12-29T05:02:48;0.20;;;0.10;;
27015;SDS011;14557;0.000;0.000;2023-12-29T05:05:13;0.30;;;0.10;;
27015;SDS011;14557;0.000;0.000;2023-12-29T05:07:39;0.35;;;0.15;;
27015;SDS011;14557;0.000;0.000;2023-12-29T05:10:06;0.38;;;0.10;;
27015;SDS011;14557;0.000;0.000;2023-12-29T05:12:32;0.52;;;0.10;;
27015;SDS011;14557;0.000;0.000;2023-12-29T05:14:58;0.38;;;0.10;;
27015;SDS011;14557;0.000;0.000;2023-12-29T05:17:24;1.00;;;0.10;;
27015;SDS011;14557;0.000;0.000;2023-12-29T05:19:49;0.35;;;0.10;;
27015;SDS011;14557;0.000;0.000;2023-12-29T05:22:15;0.50;;;0.10;;
27015;SDS011;14557;0.000;0.000;2023-12-29T05:24:42;0.47;;;0.10;;
27015;SDS011;14557;0.000;0.000;2023-12-29T05:27:10;0.85;;;0.10;;
27015;SDS011;14557;0.000;0.000;2023-12-29T05:29:36;0.30;;;0.20;;
27015;SDS011;14557;0.000;0.000;2023-12-29T05:32:01;0.65;;;0.10;;
27015;SDS011;14557;0.000;0.000;2023-12-29T05:34:28;0.20;;;0.08;;
27015;SDS011;14557;0.000;0.000;2023-12-29T05:36:54;0.30;;;0.10;;
27015;SDS011;14557;0.000;0.000;2023-12-29T05:39:19;0.60;;;0.10;;
27015;SDS011;14557;0.000;0.000;2023-12-29T05:41:45;0.20;;;0.00;;
27015;SDS011;14557;0.000;0.000;2023-12-29T05:44:11;0.22;;;0.10;;
27015;SDS011;14557;0.000;0.000;2023-12-29T05:46:36;0.20;;;0.10;;
27015;SDS011;14557;0.000;0.000;2023-12-29T05:49:02;0.50;;;0.15;;
27015;SDS011;14557;0.000;0.000;2023-12-29T05:51:28;0.30;;;0.10;;
27015;SDS011;14557;0.000;0.000;2023-12-29T05:53:54;0.30;;;0.10;;
27015;SDS011;14557;0.000;0.000;2023-12-29T05:56:19;0.38;;;0.10;;
27015;SDS011;14557;0.000;0.000;2023-12-29T05:58:45;0.13;;;0.05;;
27015;SDS011;14557;0.000;0.000;2023-12-29T06:01:11;0.05;;;0.00;;
27015;SDS011;14557;0.000;0.000;2023-12-29T06:03:37;0.60;;;0.10;;
27015;SDS011;14557;0.000;0.000;2023-12-29T06:06:03;0.55;;;0.10;;
27015;SDS011;14557;0.000;0.000;2023-12-29T06:08:29;0.63;;;0.10;;
27015;SDS011;14557;0.000;0.000;2023-12-29T06:10:54;0.40;;;0.10;;
27015;SDS011;14557;0.000;0.000;2023-12-29T06:13:20;0.20;;;0.10;;
27015;SDS011;14557;0.000;0.000;2023-12-29T06:15:46;0.28;;;0.08;;
27015;SDS011;14557;0.000;0.000;2023-12-29T06:18:12;0.57;;;0.10;;
27015;SDS011;14557;0.000;0.000;2023-12-29T06:20:37;0.17;;;0.05;;
27015;SDS011;14557;0.000;0.000;2023-12-29T06:23:03;0.00;;;0.00;;
27015;SDS011;14557;0.000;0.000;2023-12-29T06:25:29;0.32;;;0.10;;
27015;SDS011;14557;0.000;0.000;2023-12-29T06:27:55;0.40;;;0.10;;
27015;SDS011;14557;0.000;0.000;2023-12-29T06:30:20;0.10;;;0.00;;
27015;SDS011;14557;0.000;0.000;2023-12-29T06:32:46;0.35;;;0.10;;
27015;SDS011;14557;0.000;0.000;2023-12-29T06:35:12;0.50;;;0.17;;
27015;SDS011;14557;0.000;0.000;2023-12-29T06:37:38;0.30;;;0.05;;
27015;SDS011;14557;0.000;0.000;2023-12-29T06:40:06;0.00;;;0.00;;
27015;SDS011;14557;0.000;0.000;2023-12-29T06:42:32;0.25;;;0.10;;
27015;SDS011;14557;0.000;0.000;2023-12-29T06:44:58;0.13;;;0.00;;
27015;SDS011;14557;0.000;0.000;2023-12-29T06:47:24;0.20;;;0.10;;
27015;SDS011;14557;0.000;0.000;2023-12-29T06:49:50;0.00;;;0.00;;
27015;SDS011;14557;0.000;0.000;2023-12-29T06:52:16;0.00;;;0.00;;
27015;SDS011;14557;0.000;0.000;2023-12-29T06:54:41;0.17;;;0.10;;
27015;SDS011;14557;0.000;0.000;2023-12-29T06:57:07;0.80;;;0.10;;
27015;SDS011;14557;0.000;0.000;2023-12-29T06:59:33;0.05;;;0.00;;
27015;SDS011;14557;0.000;0.000;2023-12-29T07:01:59;0.10;;;0.00;;
27015;SDS011;14557;0.000;0.000;2023-12-29T07:04:24;0.00;;;0.00;;
27015;SDS011;14557;0.000;0.000;2023-12-29T07:06:50;0.32;;;0.10;;
27015;SDS011;14557;0.000;0.000;2023-12-29T07:09:16;0.10;;;0.00;;
27015;SDS011;14557;0.000;0.000;2023-12-29T07:11:46;0.32;;;0.10;;
27015;SDS011;14557;0.000;0.000;2023-12-29T07:14:13;0.00;;;0.00;;
27015;SDS011;14557;0.000;0.000;2023-12-29T07:16:39;0.00;;;0.00;;
27015;SDS011;14557;0.000;0.000;2023-12-29T07:19:05;0.20;;;0.00;;
27015;SDS011;14557;0.000;0.000;2023-12-29T07:21:31;0.00;;;0.00;;
27015;SDS011;14557;0.000;0.000;2023-12-29T07:23:56;0.50;;;0.10;;
27015;SDS011;14557;0.000;0.000;2023-12-29T07:26:22;1.08;;;0.10;;
27015;SDS011;14557;0.000;0.000;2023-12-29T07:28:48;0.30;;;0.10;;
27015;SDS011;14557;0.000;0.000;2023-12-29T07:31:19;0.10;;;0.00;;
27015;SDS011;14557;0.000;0.000;2023-12-29T07:33:47;0.00;;;0.00;;
27015;SDS011;14557;0.000;0.000;2023-12-29T07:36:14;0.00;;;0.00;;
27015;SDS011;14557;0.000;0.000;2023-12-29T07:38:39;0.17;;;0.00;;
27015;SDS011;14557;0.000;0.000;2023-12-29T07:41:05;0.03;;;0.00;;
27015;SDS011;14557;0.000;0.000;2023-12-29T07:43:31;1.60;;;0.35;;
27015;SDS011;14557;0.000;0.000;2023-12-29T07:45:57;0.50;;;0.10;;
27015;SDS011;14557;0.000;0.000;2023-12-29T07:48:23;0.38;;;0.10;;
27015;SDS011;14557;0.000;0.000;2023-12-29T07:50:49;0.00;;;0.00;;
27015;SDS011;14557;0.000;0.000;2023-12-29T07:53:14;0.05;;;0.05;;
27015;SDS011;14557;0.000;0.000;2023-12-29T07:55:41;0.10;;;0.00;;
27015;SDS011;14557;0.000;0.000;2023-12-29T07:58:08;0.20;;;0.03;;
27015;SDS011;14557;0.000;0.000;2023-12-29T08:00:35;0.00;;;0.00;;
27015;SDS011;14557;0.000;0.000;2023-12-29T08:03:01;0.05;;;0.00;;
27015;SDS011;14557;0.000;0.000;2023-12-29T08:05:27;0.10;;;0.00;;
27015;SDS011;14557;0.000;0.000;2023-12-29T08:07:54;0.30;;;0.03;;
27015;SDS011;14557;0.000;0.000;2023-12-29T08:10:20;0.30;;;0.00;;
27015;SDS011;14557;0.000;0.000;2023-12-29T08:12:45;0.10;;;0.00;;
27015;SDS011;14557;0.000;0.000;2023-12-29T08:15:11;0.00;;;0.00;;
27015;SDS011;14557;0.000;0.000;2023-12-29T08:17:37;0.25;;;0.08;;
27015;SDS011;14557;0.000;0.000;2023-12-29T08:20:03;0.10;;;0.00;;
27015;SDS011;14557;0.000;0.000;2023-12-29T08:22:30;0.10;;;0.00;;
27015;SDS011;14557;0.000;0.000;2023-12-29T08:27:23;0.13;;;0.00;;
27015;SDS011;14557;0.000;0.000;2023-12-29T08:29:52;0.08;;;0.00;;
27015;SDS011;14557;0.000;0.000;2023-12-29T08:32:19;0.10;;;0.00;;
27015;SDS011;14557;0.000;0.000;2023-12-29T08:34:46;0.22;;;0.10;;
27015;SDS011;14557;0.000;0.000;2023-12-29T08:37:12;0.08;;;0.00;;
27015;SDS011;14557;0.000;0.000;2023-12-29T08:39:44;0.10;;;0.00;;
27015;SDS011;14557;0.000;0.000;2023-12-29T08:42:13;0.13;;;0.10;;
27015;SDS011;14557;0.000;0.000;2023-12-29T08:44:39;0.10;;;0.00;;
27015;SDS011;14557;0.000;0.000;2023-12-29T08:47:05;0.10;;;0.00;;
27015;SDS011;14557;0.000;0.000;2023-12-29T08:49:33;0.10;;;0.00;;
27015;SDS011;14557;0.000;0.000;2023-12-29T08:52:01;0.00;;;0.00;;
27015;SDS011;14557;0.000;0.000;2023-12-29T08:54:27;0.00;;;0.00;;
27015;SDS011;14557;0.000;0.000;2023-12-29T08:56:53;0.15;;;0.00;;
27015;SDS011;14557;0.000;0.000;2023-12-29T08:59:18;0.10;;;0.10;;
27015;SDS011;14557;0.000;0.000;2023-12-29T09:01:44;0.20;;;0.00;;
27015;SDS011;14557;0.000;0.000;2023-12-29T09:04:10;0.00;;;0.00;;
27015;SDS011;14557;0.000;0.000;2023-12-29T09:06:36;0.10;;;0.00;;
27015;SDS011;14557;0.000;0.000;2023-12-29T09:09:01;0.40;;;0.10;;
27015;SDS011;14557;0.000;0.000;2023-12-29T09:11:27;0.30;;;0.10;;
27015;SDS011;14557;0.000;0.000;2023-12-29T09:13:53;1.27;;;0.10;;
27015;SDS011;14557;0.000;0.000;2023-12-29T09:16:19;0.00;;;0.00;;
27015;SDS011;14557;0.000;0.000;2023-12-29T09:18:45;0.35;;;0.10;;
27015;SDS011;14557;0.000;0.000;2023-12-29T09:21:10;0.08;;;0.08;;
27015;SDS011;14557;0.000;0.000;2023-12-29T09:23:37;0.10;;;0.10;;
27015;SDS011;14557;0.000;0.000;2023-12-29T09:26:03;0.60;;;0.10;;
27015;SDS011;14557;0.000;0.000;2023-12-29T09:28:31;0.10;;;0.10;;
27015;SDS011;14557;0.000;0.000;2023-12-29T09:30:57;0.17;;;0.00;;
27015;SDS011;14557;0.000;0.000;2023-12-29T09:33:23;0.30;;;0.10;;
27015;SDS011;14557;0.000;0.000;2023-12-29T09:35:50;0.20;;;0.10;;
27015;SDS011;14557;0.000;0.000;2023-12-29T09:38:16;0.35;;;0.10;;
27015;SDS011;14557;0.000;0.000;2023-12-29T09:40:41;0.10;;;0.05;;
27015;SDS011;14557;0.000;0.000;2023-12-29T09:43:07;0.10;;;0.00;;
27015;SDS011;14557;0.000;0.000;2023-12-29T09:45:35;0.60;;;0.20;;
27015;SDS011;14557;0.000;0.000;2023-12-29T09:48:03;0.00;;;0.00;;
27015;SDS011;14557;0.000;0.000;2023-12-29T09:50:32;1.00;;;0.50;;
27015;SDS011;14557;0.000;0.000;2023-12-29T09:53:00;0.73;;;0.20;;
27015;SDS011;14557;0.000;0.000;2023-12-29T09:55:27;1.17;;;0.38;;
27015;SDS011;14557;0.000;0.000;2023-12-29T09:57:53;1.08;;;0.20;;
27015;SDS011;14557;0.000;0.000;2023-12-29T10:00:20;1.77;;;0.20;;
27015;SDS011;14557;0.000;0.000;2023-12-29T10:02:46;0.25;;;0.10;;
27015;SDS011;14557;0.000;0.000;2023-12-29T10:05:16;1.38;;;0.50;;
27015;SDS011;14557;0.000;0.000;2023-12-29T10:07:41;0.52;;;0.20;;
27015;SDS011;14557;0.000;0.000;2023-12-29T10:10:12;0.43;;;0.15;;
27015;SDS011;14557;0.000;0.000;2023-12-29T10:12:40;0.45;;;0.10;;
27015;SDS011;14557;0.000;0.000;2023-12-29T10:23:10;1.08;;;0.10;;
27015;SDS011;14557;0.000;0.000;2023-12-29T10:25:41;0.32;;;0.13;;
27015;SDS011;14557;0.000;0.000;2023-12-29T10:28:07;1.00;;;0.15;;
27015;SDS011;14557;0.000;0.000;2023-12-29T10:30:35;0.28;;;0.10;;
27015;SDS011;14557;0.000;0.000;2023-12-29T10:33:03;0.98;;;0.20;;
27015;SDS011;14557;0.000;0.000;2023-12-29T10:35:29;0.63;;;0.22;;
27015;SDS011;14557;0.000;0.000;2023-12-29T10:38:08;0.47;;;0.10;;
27015;SDS011;14557;0.000;0.000;2023-12-29T10:40:37;1.45;;;0.10;;
27015;SDS011;14557;0.000;0.000;2023-12-29T10:43:03;3.10;;;1.17;;
27015;SDS011;14557;0.000;0.000;2023-12-29T10:45:33;4.85;;;0.40;;
27015;SDS011;14557;0.000;0.000;2023-12-29T10:48:01;5.43;;;0.40;;
27015;SDS011;14557;0.000;0.000;2023-12-29T10:50:27;2.50;;;0.40;;
27015;SDS011;14557;0.000;0.000;2023-12-29T10:55:39;2.08;;;0.25;;
27015;SDS011;14557;0.000;0.000;2023-12-29T10:58:05;2.65;;;0.30;;
27015;SDS011;14557;0.000;0.000;2023-12-29T11:00:31;3.47;;;0.77;;
27015;SDS011;14557;0.000;0.000;2023-12-29T11:03:00;4.35;;;0.30;;
27015;SDS011;14557;0.000;0.000;2023-12-29T11:05:26;1.40;;;0.52;;
27015;SDS011;14557;0.000;0.000;2023-12-29T11:07:53;5.37;;;0.70;;
27015;SDS011;14557;0.000;0.000;2023-12-29T11:12:47;2.55;;;0.38;;
27015;SDS011;14557;0.000;0.000;2023-12-29T11:15:14;2.30;;;0.40;;
27015;SDS011;14557;0.000;0.000;2023-12-29T11:17:41;2.67;;;0.30;;
27015;SDS011;14557;0.000;0.000;2023-12-29T11:20:26;2.28;;;0.30;;
27015;SDS011;14557;0.000;0.000;2023-12-29T11:22:52;2.22;;;0.43;;
27015;SDS011;14557;0.000;0.000;2023-12-29T11:25:19;2.58;;;0.40;;
27015;SDS011;14557;0.000;0.000;2023-12-29T11:27:45;1.80;;;0.40;;
27015;SDS011;14557;0.000;0.000;2023-12-29T11:30:13;0.88;;;0.30;;
27015;SDS011;14557;0.000;0.000;2023-12-29T11:32:47;2.87;;;0.50;;
27015;SDS011;14557;0.000;0.000;2023-12-29T11:41:07;2.38;;;0.30;;
27015;SDS011;14557;0.000;0.000;2023-12-29T11:43:34;1.52;;;0.63;;
27015;SDS011;14557;0.000;0.000;2023-12-29T11:46:00;2.95;;;0.32;;
27015;SDS011;14557;0.000;0.000;2023-12-29T11:56:49;1.65;;;0.32;;
27015;SDS011;14557;0.000;0.000;2023-12-29T11:59:17;2.78;;;0.60;;
27015;SDS011;14557;0.000;0.000;2023-12-29T12:01:43;4.53;;;0.40;;
27015;SDS011;14557;0.000;0.000;2023-12-29T12:07:06;5.38;;;0.50;;
27015;SDS011;14557;0.000;0.000;2023-12-29T12:09:42;1.98;;;0.40;;
27015;SDS011;14557;0.000;0.000;2023-12-29T12:12:08;1.83;;;0.40;;
27015;SDS011;14557;0.000;0.000;2023-12-29T12:14:44;1.77;;;0.43;;
27015;SDS011;14557;0.000;0.000;2023-12-29T12:17:11;4.13;;;0.40;;
27015;SDS011;14557;0.000;0.000;2023-12-29T12:19:36;3.75;;;0.57;;
27015;SDS011;14557;0.000;0.000;2023-12-29T12:22:03;3.28;;;0.60;;
27015;SDS011;14557;0.000;0.000;2023-12-29T12:24:31;4.75;;;1.00;;
27015;SDS011;14557;0.000;0.000;2023-12-29T12:27:00;5.78;;;0.85;;
27015;SDS011;14557;0.000;0.000;2023-12-29T12:29:27;2.45;;;0.52;;
27015;SDS011;14557;0.000;0.000;2023-12-29T12:31:54;3.03;;;0.40;;
27015;SDS011;14557;0.000;0.000;2023-12-29T12:36:50;4.63;;;0.60;;
27015;SDS011;14557;0.000;0.000;2023-12-29T12:39:16;4.50;;;0.57;;
27015;SDS011;14557;0.000;0.000;2023-12-29T12:41:42;3.63;;;0.45;;
27015;SDS011;14557;0.000;0.000;2023-12-29T12:46:40;4.60;;;0.90;;
27015;SDS011;14557;0.000;0.000;2023-12-29T12:49:10;4.05;;;0.70;;
27015;SDS011;14557;0.000;0.000;2023-12-29T12:51:36;3.60;;;0.50;;
27015;SDS011;14557;0.000;0.000;2023-12-29T12:54:01;4.15;;;0.57;;
27015;SDS011;14557;0.000;0.000;2023-12-29T12:56:27;3.10;;;0.40;;
27015;SDS011;14557;0.000;0.000;2023-12-29T12:58:57;3.20;;;0.50;;
27015;SDS011;14557;0.000;0.000;2023-12-29T13:01:23;2.55;;;0.40;;
27015;SDS011;14557;0.000;0.000;2023-12-29T13:03:51;2.03;;;0.50;;
27015;SDS011;14557;0.000;0.000;2023-12-29T13:06:17;2.78;;;0.40;;
27015;SDS011;14557;0.000;0.000;2023-12-29T13:08:44;2.33;;;0.65;;
27015;SDS011;14557;0.000;0.000;2023-12-29T13:11:13;1.33;;;0.70;;
27015;SDS011;14557;0.000;0.000;2023-12-29T13:13:39;3.08;;;0.63;;
27015;SDS011;14557;0.000;0.000;2023-12-29T13:16:06;2.83;;;0.70;;
27015;SDS011;14557;0.000;0.000;2023-12-29T13:18:32;1.40;;;0.40;;
27015;SDS011;14557;0.000;0.000;2023-12-29T13:20:59;2.72;;;0.47;;
27015;SDS011;14557;0.000;0.000;2023-12-29T13:25:56;3.08;;;0.50;;
27015;SDS011;14557;0.000;0.000;2023-12-29T13:28:24;3.40;;;0.75;;
27015;SDS011;14557;0.000;0.000;2023-12-29T13:30:51;3.38;;;0.52;;
27015;SDS011;14557;0.000;0.000;2023-12-29T13:35:59;2.55;;;0.30;;
27015;SDS011;14557;0.000;0.000;2023-12-29T13:38:39;3.63;;;0.63;;
27015;SDS011;14557;0.000;0.000;2023-12-29T13:41:11;1.80;;;0.50;;
27015;SDS011;14557;0.000;0.000;2023-12-29T13:43:38;1.50;;;0.40;;
27015;SDS011;14557;0.000;0.000;2023-12-29T13:46:07;1.25;;;0.50;;
27015;SDS011;14557;0.000;0.000;2023-12-29T13:48:38;2.03;;;0.50;;
27015;SDS011;14557;0.000;0.000;2023-12-29T13:51:06;2.35;;;0.50;;
27015;SDS011;14557;0.000;0.000;2023-12-29T13:53:32;2.13;;;0.35;;
27015;SDS011;14557;0.000;0.000;2023-12-29T13:56:08;1.55;;;0.35;;
27015;SDS011;14557;0.000;0.000;2023-12-29T13:58:34;3.63;;;0.52;;
27015;SDS011;14557;0.000;0.000;2023-12-29T14:01:00;1.98;;;0.63;;
27015;SDS011;14557;0.000;0.000;2023-12-29T14:03:37;1.67;;;0.43;;
27015;SDS011;14557;0.000;0.000;2023-12-29T14:06:11;1.45;;;0.30;;
27015;SDS011;14557;0.000;0.000;2023-12-29T14:08:45;0.75;;;0.32;;
27015;SDS011;14557;0.000;0.000;2023-12-29T14:11:11;2.33;;;0.40;;
27015;SDS011;14557;0.000;0.000;2023-12-29T14:13:44;1.20;;;0.45;;
27015;SDS011;14557;0.000;0.000;2023-12-29T14:16:10;2.25;;;0.40;;
27015;SDS011;14557;0.000;0.000;2023-12-29T14:21:27;1.48;;;0.40;;
27015;SDS011;14557;0.000;0.000;2023-12-29T14:26:39;2.22;;;0.60;;
27015;SDS011;14557;0.000;0.000;2023-12-29T14:29:07;2.38;;;0.45;;
27015;SDS011;14557;0.000;0.000;2023-12-29T14:31:36;2.45;;;0.35;;
27015;SDS011;14557;0.000;0.000;2023-12-29T14:34:07;3.03;;;0.60;;
27015;SDS011;14557;0.000;0.000;2023-12-29T14:36:33;4.80;;;1.95;;
27015;SDS011;14557;0.000;0.000;2023-12-29T14:39:00;2.83;;;1.40;;
27015;SDS011;14557;0.000;0.000;2023-12-29T14:41:27;3.95;;;0.80;;
27015;SDS011;14557;0.000;0.000;2023-12-29T14:43:54;7.28;;;1.30;;
27015;SDS011;14557;0.000;0.000;2023-12-29T14:46:20;4.07;;;0.70;;
27015;SDS011;14557;0.000;0.000;2023-12-29T14:48:46;16.52;;;5.90;;
27015;SDS011;14557;0.000;0.000;2023-12-29T14:51:11;15.65;;;5.65;;
27015;SDS011;14557;0.000;0.000;2023-12-29T14:53:37;6.00;;;1.65;;
27015;SDS011;14557;0.000;0.000;2023-12-29T14:56:04;4.47;;;1.20;;
27015;SDS011;14557;0.000;0.000;2023-12-29T14:58:30;2.88;;;0.88;;
27015;SDS011;14557;0.000;0.000;2023-12-29T15:00:58;4.22;;;1.00;;
27015;SDS011;14557;0.000;0.000;2023-12-29T15:03:24;3.80;;;0.90;;
27015;SDS011;14557;0.000;0.000;2023-12-29T15:05:50;3.53;;;0.80;;
27015;SDS011;14557;0.000;0.000;2023-12-29T15:08:16;3.30;;;0.80;;
27015;SDS011;14557;0.000;0.000;2023-12-29T15:10:44;3.55;;;1.23;;
27015;SDS011;14557;0.000;0.000;2023-12-29T15:13:10;3.10;;;0.60;;
27015;SDS011;14557;0.000;0.000;2023-12-29T15:15:36;2.28;;;0.50;;
27015;SDS011;14557;0.000;0.000;2023-12-29T15:18:02;2.78;;;0.50;;
27015;SDS011;14557;0.000;0.000;2023-12-29T15:20:28;1.40;;;0.50;;
27015;SDS011;14557;0.000;0.000;2023-12-29T15:22:54;1.95;;;0.88;;
27015;SDS011;14557;0.000;0.000;2023-12-29T15:25:23;2.90;;;0.70;;
27015;SDS011;14557;0.000;0.000;2023-12-29T15:27:50;2.42;;;0.70;;
27015;SDS011;14557;0.000;0.000;2023-12-29T15:30:17;1.73;;;0.60;;
27015;SDS011;14557;0.000;0.000;2023-12-29T15:32:42;3.13;;;2.00;;
27015;SDS011;14557;0.000;0.000;2023-12-29T15:35:10;2.90;;;0.95;;
27015;SDS011;14557;0.000;0.000;2023-12-29T15:37:36;3.15;;;1.05;;
27015;SDS011;14557;0.000;0.000;2023-12-29T15:40:02;2.15;;;1.02;;
27015;SDS011;14557;0.000;0.000;2023-12-29T15:42:29;3.05;;;1.10;;
27015;SDS011;14557;0.000;0.000;2023-12-29T15:44:55;2.30;;;0.70;;
27015;SDS011;14557;0.000;0.000;2023-12-29T15:47:21;1.70;;;0.70;;